createdAt,value
2023-03-17T00:02:24.989Z,2.83
2023-03-17T00:04:53.359Z,2.78
2023-03-17T00:07:21.462Z,2.73
2023-03-17T00:14:09.735Z,2.69
2023-03-17T00:16:43.256Z,2.68
2023-03-17T00:19:17.469Z,2.69
2023-03-17T00:21:47.445Z,2.71
2023-03-17T00:24:16.583Z,2.72
2023-03-17T00:26:45.563Z,2.70
2023-03-17T00:29:14.419Z,2.66
2023-03-17T00:31:45.953Z,2.61
2023-03-17T00:34:18.702Z,2.59
2023-03-17T00:36:51.004Z,2.56
2023-03-17T00:39:20.224Z,2.53
2023-03-17T00:41:49.552Z,2.49
2023-03-17T00:44:19.095Z,2.47
2023-03-17T00:46:47.830Z,2.44
2023-03-17T00:49:22.460Z,2.44
2023-03-17T00:51:51.823Z,2.45
2023-03-17T00:54:21.156Z,2.45
2023-03-17T00:56:51.242Z,2.45
2023-03-17T00:59:30.236Z,2.48
2023-03-17T01:01:59.216Z,2.48
2023-03-17T01:04:28.259Z,2.49
2023-03-17T01:06:59.318Z,2.51
2023-03-17T01:09:29.120Z,2.51
2023-03-17T01:12:00.140Z,2.54
2023-03-17T01:14:29.624Z,2.58
2023-03-17T01:16:58.624Z,2.56
2023-03-17T01:19:27.970Z,2.57
2023-03-17T01:21:57.068Z,2.53
2023-03-17T01:24:27.087Z,2.51
2023-03-17T01:26:56.099Z,2.47
2023-03-17T01:29:25.181Z,2.46
2023-03-17T01:31:54.440Z,2.41
2023-03-17T01:34:23.610Z,2.41
2023-03-17T01:36:52.591Z,2.42
2023-03-17T01:39:21.588Z,2.43
2023-03-17T01:41:52.541Z,2.39
2023-03-17T01:44:21.360Z,2.37
2023-03-17T01:46:50.448Z,2.36
2023-03-17T01:49:33.642Z,2.33
2023-03-17T01:52:22.151Z,2.33
2023-03-17T01:54:57.229Z,2.32
2023-03-17T01:57:35.032Z,2.27
2023-03-17T02:00:16.642Z,2.22
2023-03-17T02:02:49.200Z,2.17
2023-03-17T02:05:21.601Z,2.15
2023-03-17T02:07:51.559Z,2.11
2023-03-17T02:10:22.632Z,2.07
2023-03-17T02:12:57.124Z,2.02
2023-03-17T02:15:37.836Z,1.99
2023-03-17T02:18:08.624Z,1.99
2023-03-17T02:20:38.881Z,2.01
2023-03-17T02:23:08.278Z,2.02
2023-03-17T02:25:37.888Z,2.03
2023-03-17T02:28:14.492Z,2.01
2023-03-17T02:30:43.735Z,2.04
2023-03-17T02:33:13.068Z,2.06
2023-03-17T02:35:42.578Z,2.05
2023-03-17T02:38:11.460Z,2.03
2023-03-17T02:40:40.392Z,2.01
2023-03-17T02:43:09.459Z,1.99
2023-03-17T02:45:38.338Z,1.94
2023-03-17T02:48:07.613Z,1.93
2023-03-17T02:50:37.044Z,1.94
2023-03-17T02:53:05.987Z,1.96
2023-03-17T02:55:34.929Z,1.95
2023-03-17T02:58:04.073Z,1.94
2023-03-17T03:00:34.425Z,1.88
2023-03-17T03:03:05.493Z,1.84
2023-03-17T03:05:36.296Z,1.78
2023-03-17T03:08:05.435Z,1.73
2023-03-17T03:10:35.714Z,1.72
2023-03-17T03:13:05.437Z,1.72
2023-03-17T03:15:35.392Z,1.71
2023-03-17T03:18:04.631Z,1.71
2023-03-17T03:20:33.429Z,1.66
2023-03-17T03:23:02.348Z,1.64
2023-03-17T03:25:31.968Z,1.61
2023-03-17T03:28:01.634Z,1.57
2023-03-17T03:30:30.805Z,1.54
2023-03-17T03:33:00.104Z,1.54
2023-03-17T03:35:30.020Z,1.53
2023-03-17T03:37:59.028Z,1.56
2023-03-17T03:40:28.639Z,1.55
2023-03-17T03:42:57.915Z,1.52
2023-03-17T03:45:27.392Z,1.51
2023-03-17T03:47:56.739Z,1.52
2023-03-17T03:50:26.037Z,1.48
2023-03-17T03:52:55.065Z,1.49
2023-03-17T03:55:24.024Z,1.48
2023-03-17T03:57:53.222Z,1.48
2023-03-17T04:00:23.364Z,1.46
2023-03-17T04:02:52.506Z,1.45
2023-03-17T04:05:21.423Z,1.46
2023-03-17T04:07:50.621Z,1.47
2023-03-17T04:10:19.547Z,1.47
2023-03-17T04:12:48.289Z,1.48
2023-03-17T04:15:18.885Z,1.49
2023-03-17T04:17:48.305Z,1.51
2023-03-17T04:20:18.137Z,1.52
2023-03-17T04:22:47.417Z,1.54
2023-03-17T04:25:16.411Z,1.56
2023-03-17T04:27:45.372Z,1.56
2023-03-17T04:30:15.030Z,1.54
2023-03-17T04:32:44.453Z,1.54
2023-03-17T04:35:19.098Z,1.54
2023-03-17T04:37:48.860Z,1.55
2023-03-17T04:40:19.094Z,1.58
2023-03-17T04:42:47.921Z,1.60
2023-03-17T04:45:17.147Z,1.63
2023-03-17T04:47:49.113Z,1.63
2023-03-17T04:50:18.384Z,1.59
2023-03-17T04:52:47.582Z,1.61
2023-03-17T04:55:16.917Z,1.62
2023-03-17T04:57:46.294Z,1.60
2023-03-17T05:00:15.906Z,1.55
2023-03-17T05:02:44.879Z,1.50
2023-03-17T05:05:14.055Z,1.44
2023-03-17T05:07:45.320Z,1.41
2023-03-17T05:10:14.185Z,1.38
2023-03-17T05:12:43.310Z,1.38
2023-03-17T05:15:12.776Z,1.39
2023-03-17T05:17:41.637Z,1.40
2023-03-17T05:20:11.073Z,1.37
2023-03-17T05:22:40.340Z,1.39
2023-03-17T05:25:09.590Z,1.40
2023-03-17T05:27:38.432Z,1.39
2023-03-17T05:30:08.845Z,1.36
2023-03-17T05:32:37.632Z,1.37
2023-03-17T05:35:07.450Z,1.39
2023-03-17T05:37:36.461Z,1.38
2023-03-17T05:40:05.859Z,1.40
2023-03-17T05:42:34.954Z,1.41
2023-03-17T05:45:05.711Z,1.46
2023-03-17T05:47:34.918Z,1.51
2023-03-17T05:50:05.210Z,1.54
2023-03-17T05:52:34.068Z,1.58
2023-03-17T05:55:03.440Z,1.64
2023-03-17T05:57:32.338Z,1.67
2023-03-17T06:00:01.446Z,1.75
2023-03-17T06:02:30.811Z,1.80
2023-03-17T06:04:59.747Z,1.89
2023-03-17T06:07:38.180Z,1.99
2023-03-17T06:10:18.912Z,2.08
2023-03-17T06:12:48.001Z,2.13
2023-03-17T06:15:17.523Z,2.20
2023-03-17T06:17:46.884Z,2.32
2023-03-17T06:20:16.301Z,2.41
2023-03-17T06:23:02.155Z,2.56
2023-03-17T06:25:33.786Z,2.70
2023-03-17T06:28:04.574Z,2.79
2023-03-17T06:30:34.392Z,2.89
2023-03-17T06:33:04.019Z,2.99
2023-03-17T06:35:33.976Z,3.07
2023-03-17T06:38:04.019Z,3.15
2023-03-17T06:40:34.408Z,3.20
2023-03-17T06:43:03.550Z,3.28
2023-03-17T06:45:33.413Z,3.44
2023-03-17T06:48:02.855Z,3.58
2023-03-17T06:50:32.082Z,3.70
2023-03-17T06:53:01.357Z,3.75
2023-03-17T06:55:30.589Z,3.78
2023-03-17T06:57:59.580Z,3.88
2023-03-17T07:00:28.437Z,4.03
2023-03-17T07:02:58.087Z,4.14
2023-03-17T07:05:27.252Z,4.21
2023-03-17T07:07:56.353Z,4.25
2023-03-17T07:10:25.958Z,4.30
2023-03-17T07:12:55.481Z,4.27
2023-03-17T07:15:25.109Z,4.28
2023-03-17T07:17:54.710Z,4.30
2023-03-17T07:20:23.760Z,4.38
2023-03-17T07:22:52.780Z,4.50
2023-03-17T07:25:22.777Z,4.63
2023-03-17T07:27:52.417Z,4.81
2023-03-17T07:30:22.284Z,5.01
2023-03-17T07:32:51.578Z,5.19
2023-03-17T07:35:20.753Z,5.34
2023-03-17T07:37:50.914Z,5.47
2023-03-17T07:40:19.865Z,5.64
2023-03-17T07:42:48.762Z,5.82
2023-03-17T07:45:17.703Z,6.00
2023-03-17T07:47:46.878Z,6.11
2023-03-17T07:50:15.890Z,6.18
2023-03-17T07:52:44.760Z,6.29
2023-03-17T07:55:20.085Z,6.39
2023-03-17T07:57:54.083Z,6.59
2023-03-17T08:00:24.961Z,6.76
2023-03-17T08:03:08.898Z,6.93
2023-03-17T08:05:43.072Z,7.03
2023-03-17T08:08:13.734Z,7.08
2023-03-17T08:10:45.438Z,7.21
2023-03-17T08:13:17.270Z,7.34
2023-03-17T08:15:48.989Z,7.48
2023-03-17T08:18:20.376Z,7.68
2023-03-17T08:20:53.806Z,7.84
2023-03-17T08:23:27.785Z,8.05
2023-03-17T08:26:01.241Z,8.25
2023-03-17T08:28:32.921Z,8.35
2023-03-17T08:31:19.487Z,8.31
2023-03-17T08:33:56.328Z,8.39
2023-03-17T08:36:29.627Z,8.41
2023-03-17T08:39:03.567Z,8.47
2023-03-17T08:41:38.712Z,8.59
2023-03-17T08:44:11.776Z,8.69
2023-03-17T08:46:44.346Z,8.69
2023-03-17T08:49:18.381Z,8.75
2023-03-17T08:51:49.402Z,8.91
2023-03-17T08:54:18.306Z,8.96
2023-03-17T08:56:57.824Z,8.99
2023-03-17T08:59:27.362Z,9.22
2023-03-17T14:02:44.913Z,19.04
2023-03-17T14:05:29.563Z,19.37
2023-03-17T14:08:11.225Z,19.54
2023-03-17T14:10:47.821Z,19.76
2023-03-17T14:13:44.695Z,20.18
2023-03-17T14:16:53.084Z,20.79
2023-03-17T14:24:35.806Z,21.46
2023-03-17T14:27:08.307Z,21.53
2023-03-17T14:29:37.204Z,21.74
2023-03-17T14:32:16.677Z,21.78
2023-03-17T14:34:58.509Z,21.86
2023-03-17T14:37:27.871Z,22.15
2023-03-17T14:39:57.625Z,22.34
2023-03-17T14:42:30.767Z,22.60
2023-03-17T14:45:01.785Z,22.80
2023-03-17T14:47:37.249Z,22.22
2023-03-17T14:50:13.482Z,22.02
2023-03-17T14:52:41.544Z,21.90
2023-03-17T14:55:14.528Z,22.08
2023-03-17T14:57:42.540Z,22.32
2023-03-17T15:00:22.760Z,22.34
2023-03-17T15:02:58.906Z,22.22
2023-03-17T15:05:40.395Z,22.17
2023-03-17T15:08:48.040Z,22.00
2023-03-17T15:11:23.890Z,21.38
2023-03-17T15:13:56.933Z,20.69
2023-03-17T15:16:29.883Z,20.18
2023-03-17T15:19:15.272Z,19.63
2023-03-17T15:21:43.378Z,19.09
2023-03-17T15:24:33.760Z,18.64
2023-03-17T15:27:21.316Z,18.15
2023-03-17T15:38:55.858Z,16.72
2023-03-17T15:41:23.697Z,16.63
2023-03-17T15:43:51.790Z,16.59
2023-03-17T15:46:24.489Z,16.66
2023-03-17T15:48:52.425Z,16.56
2023-03-17T15:51:20.303Z,16.41
2023-03-17T15:53:48.282Z,16.26
2023-03-17T15:56:19.197Z,16.03
2023-03-17T15:58:49.624Z,15.77
2023-03-17T16:01:17.965Z,15.59
2023-03-17T16:03:47.149Z,15.49
2023-03-17T16:06:21.606Z,15.34
2023-03-17T16:08:49.842Z,15.16
2023-03-17T16:11:23.307Z,14.96
2023-03-17T16:13:51.088Z,14.70
2023-03-17T16:16:26.457Z,14.46
2023-03-17T16:18:54.249Z,14.27
2023-03-17T16:21:22.252Z,14.05
2023-03-17T16:23:50.285Z,13.87
2023-03-17T16:26:36.324Z,13.74
2023-03-17T16:29:12.681Z,13.59
2023-03-17T16:31:41.050Z,13.41
2023-03-17T16:34:22.505Z,13.27
2023-03-17T16:36:51.356Z,13.12
2023-03-17T16:39:22.571Z,12.95
2023-03-17T16:41:50.628Z,12.81
2023-03-17T16:44:20.388Z,12.65
2023-03-17T16:46:48.549Z,12.50
2023-03-17T16:49:19.084Z,12.34
2023-03-17T16:51:48.747Z,12.22
2023-03-17T16:54:17.849Z,12.08
2023-03-17T16:56:45.760Z,11.96
2023-03-17T16:59:22.194Z,11.82
2023-03-17T17:01:50.260Z,11.68
2023-03-17T17:04:18.095Z,11.53
2023-03-17T17:06:47.423Z,11.41
2023-03-17T17:09:16.864Z,11.31
2023-03-17T17:11:44.630Z,11.22
2023-03-17T17:14:12.673Z,11.15
2023-03-17T17:16:40.707Z,11.04
2023-03-17T17:19:18.993Z,10.93
2023-03-17T17:21:47.909Z,10.84
2023-03-17T17:24:18.220Z,10.71
2023-03-17T17:26:46.026Z,10.62
2023-03-17T17:29:13.758Z,10.57
2023-03-17T17:31:41.840Z,10.52
2023-03-17T17:34:09.845Z,10.46
2023-03-17T17:36:37.701Z,10.41
2023-03-17T17:39:06.784Z,10.36
2023-03-17T17:41:34.815Z,10.32
2023-03-17T17:44:02.734Z,10.26
2023-03-17T17:46:30.801Z,10.20
2023-03-17T17:48:58.720Z,10.18
2023-03-17T17:51:28.180Z,10.14
2023-03-17T17:53:56.632Z,10.05
2023-03-17T17:56:24.691Z,10.00
2023-03-17T17:58:52.484Z,9.95
2023-03-17T18:01:22.595Z,9.89
2023-03-17T18:03:50.511Z,9.83
2023-03-17T18:06:18.444Z,9.80
2023-03-17T18:08:46.368Z,9.74
2023-03-17T18:11:14.204Z,9.70
2023-03-17T18:13:42.182Z,9.66
2023-03-17T18:16:18.222Z,9.61
2023-03-17T18:18:47.217Z,9.57
2023-03-17T18:21:15.951Z,9.50
2023-03-17T18:23:47.264Z,9.45
2023-03-17T18:26:16.303Z,9.38
2023-03-17T18:28:44.521Z,9.35
2023-03-17T18:31:16.703Z,9.34
2023-03-17T18:33:45.164Z,9.33
2023-03-17T18:36:13.193Z,9.30
2023-03-17T18:38:41.062Z,9.28
2023-03-17T18:41:11.040Z,9.24
2023-03-17T18:43:41.021Z,9.22
2023-03-17T18:46:08.809Z,9.20
2023-03-17T18:48:36.571Z,9.15
2023-03-17T18:51:04.656Z,9.12
2023-03-17T18:53:34.580Z,9.10
2023-03-17T18:56:02.817Z,9.05
2023-03-17T18:58:30.897Z,9.03
2023-03-17T19:01:01.513Z,9.02
2023-03-17T19:03:32.020Z,8.99
2023-03-17T19:06:08.936Z,8.97
2023-03-17T19:08:38.312Z,8.93
2023-03-17T19:11:07.840Z,8.92
2023-03-17T19:13:37.354Z,8.89
2023-03-17T19:16:07.551Z,8.84
2023-03-17T19:18:36.961Z,8.82
2023-03-17T19:21:05.240Z,8.79
2023-03-17T19:23:33.752Z,8.75
2023-03-17T19:26:02.763Z,8.71
2023-03-17T19:28:31.642Z,8.67
2023-03-17T19:30:59.521Z,8.64
2023-03-17T19:33:28.861Z,8.63
2023-03-17T19:35:59.911Z,8.62
2023-03-17T19:38:28.088Z,8.59
2023-03-17T19:40:56.020Z,8.55
2023-03-17T19:43:39.478Z,8.52
2023-03-17T19:46:10.059Z,8.48
2023-03-17T19:48:38.353Z,8.46
2023-03-17T19:51:06.756Z,8.43
2023-03-17T19:53:34.658Z,8.39
2023-03-17T19:56:02.432Z,8.40
2023-03-17T19:58:30.636Z,8.36
2023-03-17T20:00:58.441Z,8.32
2023-03-17T20:03:26.505Z,8.31
2023-03-17T20:05:54.422Z,8.30
2023-03-17T20:08:22.556Z,8.28
2023-03-17T20:10:52.856Z,8.25
2023-03-17T20:13:21.901Z,8.24
2023-03-17T20:15:51.503Z,8.20
2023-03-17T20:18:19.810Z,8.17
2023-03-17T20:20:54.912Z,8.14
2023-03-17T20:23:23.702Z,8.08
2023-03-17T20:25:52.677Z,8.02
2023-03-17T20:28:24.122Z,7.98
2023-03-17T20:30:52.025Z,7.92
2023-03-17T20:33:19.954Z,7.89
2023-03-17T20:35:48.093Z,7.87
2023-03-17T20:38:16.035Z,7.86
2023-03-17T20:40:43.910Z,7.84
2023-03-17T20:43:11.756Z,7.81
2023-03-17T20:45:39.780Z,7.76
2023-03-17T20:48:11.197Z,7.75
2023-03-17T20:50:41.064Z,7.74
2023-03-17T20:53:08.838Z,7.74
2023-03-17T20:55:37.530Z,7.69
2023-03-17T20:58:05.294Z,7.67
2023-03-17T21:00:33.498Z,7.68
2023-03-17T21:03:02.132Z,7.65
2023-03-17T21:05:30.282Z,7.62
2023-03-17T21:07:58.332Z,7.60
2023-03-17T21:10:26.088Z,7.55
2023-03-17T21:12:53.936Z,7.50
2023-03-17T21:15:23.582Z,7.48
2023-03-17T21:17:51.384Z,7.44
2023-03-17T21:20:21.154Z,7.44
2023-03-17T21:22:48.920Z,7.44
2023-03-17T21:25:16.785Z,7.40
2023-03-17T21:27:45.696Z,7.36
2023-03-17T21:30:14.459Z,7.35
2023-03-17T21:32:42.435Z,7.35
2023-03-17T21:35:10.622Z,7.34
2023-03-17T21:37:38.478Z,7.33
2023-03-17T21:40:07.017Z,7.31
2023-03-17T21:42:35.004Z,7.26
2023-03-17T21:45:02.874Z,7.23
2023-03-17T21:47:30.685Z,7.22
2023-03-17T21:49:58.432Z,7.17
2023-03-17T21:52:26.337Z,7.14
2023-03-17T21:54:54.860Z,7.11
2023-03-17T21:57:22.877Z,7.07
2023-03-17T21:59:50.751Z,7.04
2023-03-17T22:02:18.796Z,7.00
2023-03-17T22:04:47.197Z,6.99
2023-03-17T22:07:16.787Z,6.96
2023-03-17T22:09:45.028Z,6.94
2023-03-17T22:12:13.667Z,6.94
2023-03-17T22:14:41.688Z,6.94
2023-03-17T22:17:10.097Z,6.95
2023-03-17T22:19:37.943Z,6.96
2023-03-17T22:22:05.803Z,6.94
2023-03-17T22:24:34.022Z,6.92
2023-03-17T22:27:01.822Z,6.90
2023-03-17T22:29:30.497Z,6.92
2023-03-17T22:31:59.128Z,6.91
2023-03-17T22:34:27.497Z,6.92
2023-03-17T22:36:55.403Z,6.90
2023-03-17T22:39:23.201Z,6.89
2023-03-17T22:41:51.164Z,6.87
2023-03-17T22:44:19.195Z,6.82
2023-03-17T22:46:47.171Z,6.81
2023-03-17T22:49:15.162Z,6.79
2023-03-17T22:51:43.101Z,6.79
2023-03-17T22:54:12.217Z,6.79
2023-03-17T22:56:40.176Z,6.79
2023-03-17T22:59:07.899Z,6.77
2023-03-17T23:01:35.803Z,6.77
2023-03-17T23:04:03.689Z,6.74
2023-03-17T23:06:31.777Z,6.68
2023-03-17T23:08:59.584Z,6.64
2023-03-17T23:11:28.088Z,6.59
2023-03-17T23:13:55.909Z,6.56
2023-03-17T23:16:24.047Z,6.54
2023-03-17T23:18:52.713Z,6.52
2023-03-17T23:21:29.566Z,6.49
2023-03-17T23:23:57.676Z,6.48
2023-03-17T23:26:25.657Z,6.47
2023-03-17T23:28:53.791Z,6.49
2023-03-17T23:31:22.590Z,6.50
2023-03-17T23:33:51.269Z,6.51
2023-03-17T23:36:19.671Z,6.50
2023-03-17T23:38:48.622Z,6.47
2023-03-17T23:41:17.442Z,6.45
2023-03-17T23:43:46.637Z,6.43
2023-03-17T23:46:14.883Z,6.44
2023-03-17T23:48:43.266Z,6.47
2023-03-17T23:51:12.669Z,6.46
2023-03-17T23:53:41.925Z,6.44
2023-03-17T23:56:11.455Z,6.44
2023-03-17T23:58:43.297Z,6.43
